sensor_id;sensor_type;location;lat;lon;timestamp;pressure;altitude;pressure_sealevel;temperature;humidity
7532;BME280;3807;49.030;8.714;2024-03-17T00:00:21;100115.09;;;11.78;75.56
7532;BME280;3807;49.030;8.714;2024-03-17T00:02:47;100110.13;;;11.73;75.84
7532;BME280;3807;49.030;8.714;2024-03-17T00:05:13;100105.09;;;11.70;75.25
7532;BME280;3807;49.030;8.714;2024-03-17T00:07:39;100105.84;;;11.74;75.61
7532;BME280;3807;49.030;8.714;2024-03-17T00:10:05;100105.06;;;11.72;75.19
7532;BME280;3807;49.030;8.714;2024-03-17T00:12:32;100111.78;;;11.74;75.22
7532;BME280;3807;49.030;8.714;2024-03-17T00:14:58;100102.66;;;11.65;75.35
7532;BME280;3807;49.030;8.714;2024-03-17T00:17:23;100104.41;;;11.63;75.54
7532;BME280;3807;49.030;8.714;2024-03-17T00:19:49;100095.84;;;11.66;75.43
7532;BME280;3807;49.030;8.714;2024-03-17T00:22:14;100100.13;;;11.64;75.48
7532;BME280;3807;49.030;8.714;2024-03-17T00:24:40;100089.22;;;11.59;75.32
7532;BME280;3807;49.030;8.714;2024-03-17T00:27:07;100086.69;;;11.57;75.18
7532;BME280;3807;49.030;8.714;2024-03-17T00:29:33;100087.56;;;11.58;75.19
7532;BME280;3807;49.030;8.714;2024-03-17T00:31:58;100080.81;;;11.55;75.54
7532;BME280;3807;49.030;8.714;2024-03-17T00:34:24;100083.38;;;11.55;75.76
7532;BME280;3807;49.030;8.714;2024-03-17T00:36:49;100070.69;;;11.52;74.77
7532;BME280;3807;49.030;8.714;2024-03-17T00:39:16;100068.19;;;11.51;75.29
7532;BME280;3807;49.030;8.714;2024-03-17T00:41:44;100070.75;;;11.49;75.19
7532;BME280;3807;49.030;8.714;2024-03-17T00:44:09;100070.84;;;11.46;75.45
7532;BME280;3807;49.030;8.714;2024-03-17T00:46:34;100053.94;;;11.42;75.33
7532;BME280;3807;49.030;8.714;2024-03-17T00:49:00;100054.78;;;11.42;75.08
7532;BME280;3807;49.030;8.714;2024-03-17T00:51:25;100056.56;;;11.39;74.70
7532;BME280;3807;49.030;8.714;2024-03-17T00:53:51;100057.44;;;11.38;75.29
7532;BME280;3807;49.030;8.714;2024-03-17T00:56:16;100053.19;;;11.38;75.22
7532;BME280;3807;49.030;8.714;2024-03-17T00:58:42;100054.06;;;11.36;75.47
7532;BME280;3807;49.030;8.714;2024-03-17T01:01:09;100053.31;;;11.32;74.95
7532;BME280;3807;49.030;8.714;2024-03-17T01:03:35;100056.75;;;11.31;75.18
7532;BME280;3807;49.030;8.714;2024-03-17T01:06:03;100051.72;;;11.30;75.44
7532;BME280;3807;49.030;8.714;2024-03-17T01:08:29;100052.63;;;11.26;75.16
7532;BME280;3807;49.030;8.714;2024-03-17T01:10:55;100048.41;;;11.25;75.03
7532;BME280;3807;49.030;8.714;2024-03-17T01:13:20;100048.47;;;11.23;75.48
7532;BME280;3807;49.030;8.714;2024-03-17T01:15:51;100046.84;;;11.19;74.92
7532;BME280;3807;49.030;8.714;2024-03-17T01:18:17;100043.50;;;11.17;75.66
7532;BME280;3807;49.030;8.714;2024-03-17T01:20:42;100042.75;;;11.13;75.29
7532;BME280;3807;49.030;8.714;2024-03-17T01:23:07;100043.56;;;11.14;75.21
7532;BME280;3807;49.030;8.714;2024-03-17T01:25:33;100044.38;;;11.16;75.28
7532;BME280;3807;49.030;8.714;2024-03-17T01:28:03;100040.22;;;11.12;75.26
7532;BME280;3807;49.030;8.714;2024-03-17T01:30:28;100036.06;;;11.09;74.72
7532;BME280;3807;49.030;8.714;2024-03-17T01:32:53;100029.38;;;11.04;75.65
7532;BME280;3807;49.030;8.714;2024-03-17T01:35:19;100030.13;;;11.09;75.32
7532;BME280;3807;49.030;8.714;2024-03-17T01:37:45;100028.56;;;11.02;75.31
7532;BME280;3807;49.030;8.714;2024-03-17T01:40:11;100025.22;;;11.00;74.91
7532;BME280;3807;49.030;8.714;2024-03-17T01:42:40;100022.81;;;10.95;75.67
7532;BME280;3807;49.030;8.714;2024-03-17T01:45:27;100017.69;;;10.95;75.32
7532;BME280;3807;49.030;8.714;2024-03-17T01:47:54;100013.56;;;10.89;75.18
7532;BME280;3807;49.030;8.714;2024-03-17T01:50:23;100018.63;;;10.91;75.09
7532;BME280;3807;49.030;8.714;2024-03-17T01:52:52;100015.31;;;10.87;75.25
7532;BME280;3807;49.030;8.714;2024-03-17T01:55:18;100007.72;;;10.86;75.64
7532;BME280;3807;49.030;8.714;2024-03-17T01:57:44;100012.00;;;10.84;75.42
7532;BME280;3807;49.030;8.714;2024-03-17T02:00:10;100002.63;;;10.86;75.23
7532;BME280;3807;49.030;8.714;2024-03-17T02:02:37;99997.66;;;10.80;75.48
7532;BME280;3807;49.030;8.714;2024-03-17T02:05:03;99989.19;;;10.79;75.33
7532;BME280;3807;49.030;8.714;2024-03-17T02:07:28;99997.66;;;10.80;75.04
7532;BME280;3807;49.030;8.714;2024-03-17T02:09:56;99991.78;;;10.78;75.13
7532;BME280;3807;49.030;8.714;2024-03-17T02:12:22;99987.59;;;10.73;75.71
7532;BME280;3807;49.030;8.714;2024-03-17T02:14:48;99994.41;;;10.75;75.20
7532;BME280;3807;49.030;8.714;2024-03-17T02:17:13;99985.19;;;10.69;75.10
7532;BME280;3807;49.030;8.714;2024-03-17T02:19:39;99984.28;;;10.71;74.79
7532;BME280;3807;49.030;8.714;2024-03-17T02:22:13;99979.31;;;10.67;75.03
7532;BME280;3807;49.030;8.714;2024-03-17T02:24:38;99978.47;;;10.65;75.33
7532;BME280;3807;49.030;8.714;2024-03-17T02:27:04;99975.81;;;10.69;75.20
7532;BME280;3807;49.030;8.714;2024-03-17T02:29:29;99974.28;;;10.64;74.84
7532;BME280;3807;49.030;8.714;2024-03-17T02:31:55;99967.47;;;10.63;75.09
7532;BME280;3807;49.030;8.714;2024-03-17T02:34:20;99970.97;;;10.59;75.31
7532;BME280;3807;49.030;8.714;2024-03-17T02:36:46;99964.94;;;10.63;75.29
7532;BME280;3807;49.030;8.714;2024-03-17T02:39:12;99971.03;;;10.56;74.99
7532;BME280;3807;49.030;8.714;2024-03-17T02:42:15;99958.53;;;10.46;75.53
7532;BME280;3807;49.030;8.714;2024-03-17T02:44:41;99960.19;;;10.47;75.17
7532;BME280;3807;49.030;8.714;2024-03-17T02:47:06;99955.81;;;10.53;75.27
7532;BME280;3807;49.030;8.714;2024-03-17T02:49:35;99958.28;;;10.57;74.97
7532;BME280;3807;49.030;8.714;2024-03-17T02:52:09;99965.00;;;10.60;74.90
7532;BME280;3807;49.030;8.714;2024-03-17T02:54:36;99961.66;;;10.58;75.18
7532;BME280;3807;49.030;8.714;2024-03-17T02:57:02;99967.59;;;10.58;74.53
7532;BME280;3807;49.030;8.714;2024-03-17T02:59:28;99967.09;;;10.42;74.79
7532;BME280;3807;49.030;8.714;2024-03-17T03:01:53;99975.63;;;10.41;74.75
7532;BME280;3807;49.030;8.714;2024-03-17T03:04:19;99961.09;;;10.46;75.35
7532;BME280;3807;49.030;8.714;2024-03-17T03:06:45;99961.94;;;10.45;75.34
7532;BME280;3807;49.030;8.714;2024-03-17T03:09:10;99967.03;;;10.45;74.66
7532;BME280;3807;49.030;8.714;2024-03-17T03:11:42;99964.53;;;10.44;74.81
7532;BME280;3807;49.030;8.714;2024-03-17T03:14:08;99961.22;;;10.39;74.43
7532;BME280;3807;49.030;8.714;2024-03-17T03:16:33;99961.94;;;10.45;74.35
7532;BME280;3807;49.030;8.714;2024-03-17T03:18:59;99962.13;;;10.38;74.80
7532;BME280;3807;49.030;8.714;2024-03-17T03:21:25;99957.72;;;10.44;74.91
7532;BME280;3807;49.030;8.714;2024-03-17T03:23:51;99957.84;;;10.40;74.91
7532;BME280;3807;49.030;8.714;2024-03-17T03:26:17;99954.47;;;10.38;74.92
7532;BME280;3807;49.030;8.714;2024-03-17T03:28:43;99957.09;;;10.35;74.22
7532;BME280;3807;49.030;8.714;2024-03-17T03:31:12;99957.00;;;10.39;74.20
7532;BME280;3807;49.030;8.714;2024-03-17T03:33:42;99963.81;;;10.37;74.64
7532;BME280;3807;49.030;8.714;2024-03-17T03:36:12;99956.50;;;10.22;74.63
7532;BME280;3807;49.030;8.714;2024-03-17T03:38:37;99956.56;;;10.19;74.76
7532;BME280;3807;49.030;8.714;2024-03-17T03:41:11;99960.72;;;10.23;74.69
7532;BME280;3807;49.030;8.714;2024-03-17T03:43:37;99963.09;;;10.32;74.31
7532;BME280;3807;49.030;8.714;2024-03-17T03:46:03;99966.69;;;10.22;74.60
7532;BME280;3807;49.030;8.714;2024-03-17T03:48:29;99959.06;;;10.22;73.66
7532;BME280;3807;49.030;8.714;2024-03-17T03:50:55;99953.81;;;10.30;74.10
7532;BME280;3807;49.030;8.714;2024-03-17T03:53:20;99948.88;;;10.20;73.87
7532;BME280;3807;49.030;8.714;2024-03-17T03:55:46;99949.56;;;10.30;73.40
7532;BME280;3807;49.030;8.714;2024-03-17T03:58:11;99957.28;;;10.24;73.77
7532;BME280;3807;49.030;8.714;2024-03-17T04:00:38;99955.81;;;10.15;73.99
7532;BME280;3807;49.030;8.714;2024-03-17T04:03:04;99951.56;;;10.14;74.36
7532;BME280;3807;49.030;8.714;2024-03-17T04:05:30;99950.00;;;10.09;74.28
7532;BME280;3807;49.030;8.714;2024-03-17T04:07:55;99941.66;;;10.00;74.23
7532;BME280;3807;49.030;8.714;2024-03-17T04:10:20;99950.19;;;9.99;75.09
7532;BME280;3807;49.030;8.714;2024-03-17T04:12:46;99953.31;;;10.12;74.52
7532;BME280;3807;49.030;8.714;2024-03-17T04:15:13;99952.53;;;10.09;74.03
7532;BME280;3807;49.030;8.714;2024-03-17T04:17:39;99956.84;;;10.05;73.75
7532;BME280;3807;49.030;8.714;2024-03-17T04:20:05;99954.19;;;10.11;73.61
7532;BME280;3807;49.030;8.714;2024-03-17T04:22:33;99950.00;;;10.09;73.35
7532;BME280;3807;49.030;8.714;2024-03-17T04:24:59;99945.88;;;10.03;73.40
7532;BME280;3807;49.030;8.714;2024-03-17T04:27:25;99940.81;;;10.01;73.33
7532;BME280;3807;49.030;8.714;2024-03-17T04:29:54;99939.91;;;10.04;73.02
7532;BME280;3807;49.030;8.714;2024-03-17T04:32:20;99939.13;;;10.00;73.22
7532;BME280;3807;49.030;8.714;2024-03-17T04:34:47;99942.72;;;9.92;74.00
7532;BME280;3807;49.030;8.714;2024-03-17T04:37:12;99942.59;;;9.96;72.92
7532;BME280;3807;49.030;8.714;2024-03-17T04:39:41;99944.31;;;9.96;73.42
7532;BME280;3807;49.030;8.714;2024-03-17T04:42:08;99946.97;;;9.91;73.87
7532;BME280;3807;49.030;8.714;2024-03-17T04:44:34;99952.00;;;9.93;74.01
7532;BME280;3807;49.030;8.714;2024-03-17T04:46:59;99949.25;;;10.03;72.37
7532;BME280;3807;49.030;8.714;2024-03-17T04:49:25;99951.84;;;10.02;72.79
7532;BME280;3807;49.030;8.714;2024-03-17T04:51:50;99954.19;;;10.11;71.92
7532;BME280;3807;49.030;8.714;2024-03-17T04:54:16;99962.81;;;10.04;71.86
7532;BME280;3807;49.030;8.714;2024-03-17T04:56:41;99960.63;;;9.86;72.37
7532;BME280;3807;49.030;8.714;2024-03-17T04:59:06;99947.56;;;10.02;71.73
7532;BME280;3807;49.030;8.714;2024-03-17T05:01:32;99943.72;;;9.83;72.44
7532;BME280;3807;49.030;8.714;2024-03-17T05:04:02;99945.47;;;9.81;72.62
7532;BME280;3807;49.030;8.714;2024-03-17T05:06:28;99948.63;;;9.92;71.97
7532;BME280;3807;49.030;8.714;2024-03-17T05:08:53;99956.53;;;9.78;72.93
7532;BME280;3807;49.030;8.714;2024-03-17T05:11:19;99946.25;;;9.83;72.50
7532;BME280;3807;49.030;8.714;2024-03-17T05:13:45;99953.16;;;9.78;72.62
7532;BME280;3807;49.030;8.714;2024-03-17T05:16:10;99954.75;;;9.84;72.05
7532;BME280;3807;49.030;8.714;2024-03-17T05:18:36;99954.03;;;9.77;72.64
7532;BME280;3807;49.030;8.714;2024-03-17T05:21:05;99955.72;;;9.78;72.63
7532;BME280;3807;49.030;8.714;2024-03-17T05:23:33;99951.13;;;9.95;71.87
7532;BME280;3807;49.030;8.714;2024-03-17T05:25:59;99947.47;;;9.67;72.70
7532;BME280;3807;49.030;8.714;2024-03-17T05:28:27;99954.00;;;9.80;72.24
7532;BME280;3807;49.030;8.714;2024-03-17T05:30:52;99959.91;;;9.79;72.40
7532;BME280;3807;49.030;8.714;2024-03-17T05:33:19;99953.06;;;9.83;72.25
7532;BME280;3807;49.030;8.714;2024-03-17T05:36:01;99948.97;;;9.77;71.93
7532;BME280;3807;49.030;8.714;2024-03-17T05:38:28;99957.53;;;9.73;72.13
7532;BME280;3807;49.030;8.714;2024-03-17T05:43:21;99944.81;;;9.73;72.19
7532;BME280;3807;49.030;8.714;2024-03-17T05:45:46;99943.31;;;9.63;72.33
7532;BME280;3807;49.030;8.714;2024-03-17T05:48:12;99948.25;;;9.69;71.94
7532;BME280;3807;49.030;8.714;2024-03-17T05:50:37;99944.34;;;9.52;72.41
7532;BME280;3807;49.030;8.714;2024-03-17T05:53:04;99947.63;;;9.59;72.03
7532;BME280;3807;49.030;8.714;2024-03-17T05:55:30;99949.22;;;9.63;71.82
7532;BME280;3807;49.030;8.714;2024-03-17T05:57:55;99947.53;;;9.62;72.43
7532;BME280;3807;49.030;8.714;2024-03-17T06:00:21;99957.66;;;9.65;71.41
7532;BME280;3807;49.030;8.714;2024-03-17T06:02:46;99961.97;;;9.62;72.11
7532;BME280;3807;49.030;8.714;2024-03-17T06:05:12;99965.47;;;9.56;72.05
7532;BME280;3807;49.030;8.714;2024-03-17T06:07:39;99963.09;;;9.48;72.67
7532;BME280;3807;49.030;8.714;2024-03-17T06:10:05;99971.41;;;9.57;72.12
7532;BME280;3807;49.030;8.714;2024-03-17T06:12:31;99963.34;;;9.35;72.68
7532;BME280;3807;49.030;8.714;2024-03-17T06:14:56;99962.16;;;9.51;72.23
7532;BME280;3807;49.030;8.714;2024-03-17T06:17:21;99968.31;;;9.39;72.56
7532;BME280;3807;49.030;8.714;2024-03-17T06:19:47;99965.88;;;9.33;72.43
7532;BME280;3807;49.030;8.714;2024-03-17T06:22:12;99959.88;;;9.39;72.35
7532;BME280;3807;49.030;8.714;2024-03-17T06:24:37;99959.78;;;9.43;72.50
7532;BME280;3807;49.030;8.714;2024-03-17T06:27:03;99959.88;;;9.39;72.63
7532;BME280;3807;49.030;8.714;2024-03-17T06:29:28;99954.84;;;9.34;72.32
7532;BME280;3807;49.030;8.714;2024-03-17T06:31:54;99944.81;;;9.26;72.60
7532;BME280;3807;49.030;8.714;2024-03-17T06:34:20;99953.88;;;9.41;71.98
7532;BME280;3807;49.030;8.714;2024-03-17T06:36:47;99961.56;;;9.38;72.05
7532;BME280;3807;49.030;8.714;2024-03-17T06:39:13;99950.88;;;9.19;72.99
7532;BME280;3807;49.030;8.714;2024-03-17T06:41:41;99956.09;;;9.12;72.91
7532;BME280;3807;49.030;8.714;2024-03-17T06:44:07;99959.78;;;8.94;73.83
7532;BME280;3807;49.030;8.714;2024-03-17T06:46:32;99962.13;;;9.06;73.74
7532;BME280;3807;49.030;8.714;2024-03-17T06:48:57;99959.47;;;9.14;73.40
7532;BME280;3807;49.030;8.714;2024-03-17T06:51:24;99953.75;;;8.99;73.81
7532;BME280;3807;49.030;8.714;2024-03-17T06:53:50;99957.84;;;9.08;73.20
7532;BME280;3807;49.030;8.714;2024-03-17T06:56:15;99954.38;;;9.14;73.19
7532;BME280;3807;49.030;8.714;2024-03-17T06:58:40;99959.66;;;9.01;73.71
7532;BME280;3807;49.030;8.714;2024-03-17T07:01:06;99959.63;;;9.04;73.70
7532;BME280;3807;49.030;8.714;2024-03-17T07:03:32;99957.47;;;8.78;75.00
7532;BME280;3807;49.030;8.714;2024-03-17T07:06:02;99957.44;;;8.83;74.79
7532;BME280;3807;49.030;8.714;2024-03-17T07:08:29;99954.06;;;8.82;74.88
7532;BME280;3807;49.030;8.714;2024-03-17T07:10:59;99955.03;;;8.74;76.08
7532;BME280;3807;49.030;8.714;2024-03-17T07:13:25;99953.13;;;8.87;75.28
7532;BME280;3807;49.030;8.714;2024-03-17T07:15:50;99961.72;;;8.78;75.27
7532;BME280;3807;49.030;8.714;2024-03-17T07:18:15;99953.28;;;8.79;75.22
7532;BME280;3807;49.030;8.714;2024-03-17T07:20:41;99964.16;;;8.86;75.05
7532;BME280;3807;49.030;8.714;2024-03-17T07:23:07;99954.06;;;8.81;75.64
7532;BME280;3807;49.030;8.714;2024-03-17T07:25:32;99957.34;;;8.89;75.64
7532;BME280;3807;49.030;8.714;2024-03-17T07:27:57;99955.78;;;8.80;75.54
7532;BME280;3807;49.030;8.714;2024-03-17T07:30:23;99959.00;;;8.89;75.32
7532;BME280;3807;49.030;8.714;2024-03-17T07:32:48;99954.84;;;8.86;75.68
7532;BME280;3807;49.030;8.714;2024-03-17T07:35:14;99958.44;;;8.73;75.67
7532;BME280;3807;49.030;8.714;2024-03-17T07:37:39;99963.09;;;8.99;74.72
7532;BME280;3807;49.030;8.714;2024-03-17T07:40:05;99962.28;;;8.97;75.25
7532;BME280;3807;49.030;8.714;2024-03-17T07:42:36;99960.47;;;9.03;74.66
7532;BME280;3807;49.030;8.714;2024-03-17T07:45:01;99959.38;;;9.17;74.87
7532;BME280;3807;49.030;8.714;2024-03-17T07:47:27;99955.03;;;9.23;73.99
7532;BME280;3807;49.030;8.714;2024-03-17T07:50:00;99943.84;;;9.34;73.98
7532;BME280;3807;49.030;8.714;2024-03-17T07:52:29;99949.06;;;9.27;74.12
7532;BME280;3807;49.030;8.714;2024-03-17T07:54:54;99948.56;;;9.53;73.71
7532;BME280;3807;49.030;8.714;2024-03-17T07:57:20;99947.22;;;9.34;73.46
7532;BME280;3807;49.030;8.714;2024-03-17T07:59:45;99948.16;;;9.30;73.72
7532;BME280;3807;49.030;8.714;2024-03-17T08:02:11;99951.84;;;9.59;73.78
7532;BME280;3807;49.030;8.714;2024-03-17T08:04:37;99944.09;;;9.65;73.39
7532;BME280;3807;49.030;8.714;2024-03-17T08:07:04;99949.91;;;9.71;73.53
7532;BME280;3807;49.030;8.714;2024-03-17T08:09:30;99960.75;;;9.81;73.20
7532;BME280;3807;49.030;8.714;2024-03-17T08:11:55;99960.13;;;9.70;73.58
7532;BME280;3807;49.030;8.714;2024-03-17T08:14:21;99959.06;;;9.80;72.80
7532;BME280;3807;49.030;8.714;2024-03-17T08:16:46;99946.78;;;9.57;73.21
7532;BME280;3807;49.030;8.714;2024-03-17T08:19:11;99947.56;;;9.61;73.34
7532;BME280;3807;49.030;8.714;2024-03-17T08:21:37;99955.97;;;9.64;73.32
7532;BME280;3807;49.030;8.714;2024-03-17T08:24:02;99956.59;;;9.75;72.88
7532;BME280;3807;49.030;8.714;2024-03-17T08:26:28;99956.59;;;9.77;73.45
7532;BME280;3807;49.030;8.714;2024-03-17T08:28:53;99961.97;;;9.62;73.62
7532;BME280;3807;49.030;8.714;2024-03-17T08:31:19;99953.38;;;9.67;73.37
7532;BME280;3807;49.030;8.714;2024-03-17T08:33:44;99949.28;;;10.02;72.66
7532;BME280;3807;49.030;8.714;2024-03-17T08:36:09;99953.34;;;9.69;73.66
7532;BME280;3807;49.030;8.714;2024-03-17T08:38:37;99953.78;;;9.89;73.04
7532;BME280;3807;49.030;8.714;2024-03-17T08:41:06;99949.28;;;10.02;72.97
7532;BME280;3807;49.030;8.714;2024-03-17T08:43:33;99952.84;;;9.93;73.22
7532;BME280;3807;49.030;8.714;2024-03-17T08:46:01;99941.06;;;9.89;72.59
7532;BME280;3807;49.030;8.714;2024-03-17T08:48:29;99942.13;;;9.79;72.49
7532;BME280;3807;49.030;8.714;2024-03-17T08:50:56;99935.59;;;10.08;72.48
7532;BME280;3807;49.030;8.714;2024-03-17T08:53:22;99934.72;;;10.09;73.08
7532;BME280;3807;49.030;8.714;2024-03-17T08:55:48;99929.72;;;10.04;71.80
7532;BME280;3807;49.030;8.714;2024-03-17T08:58:14;99927.81;;;10.15;72.56
7532;BME280;3807;49.030;8.714;2024-03-17T09:00:40;99930.91;;;10.28;72.50
7532;BME280;3807;49.030;8.714;2024-03-17T09:03:06;99929.34;;;10.22;72.66
7532;BME280;3807;49.030;8.714;2024-03-17T09:05:35;99921.91;;;10.13;72.17
7532;BME280;3807;49.030;8.714;2024-03-17T09:08:01;99920.00;;;10.21;72.81
7532;BME280;3807;49.030;8.714;2024-03-17T09:10:26;99918.19;;;10.28;71.98
7532;BME280;3807;49.030;8.714;2024-03-17T09:12:51;99923.81;;;10.42;72.01
7532;BME280;3807;49.030;8.714;2024-03-17T09:15:17;99914.75;;;10.32;71.85
7532;BME280;3807;49.030;8.714;2024-03-17T09:17:42;99915.41;;;10.39;72.32
7532;BME280;3807;49.030;8.714;2024-03-17T09:20:11;99923.09;;;10.37;72.01
7532;BME280;3807;49.030;8.714;2024-03-17T09:22:39;99931.31;;;10.48;71.68
7532;BME280;3807;49.030;8.714;2024-03-17T09:25:06;99932.38;;;10.40;71.71
7532;BME280;3807;49.030;8.714;2024-03-17T09:27:32;99928.06;;;10.42;72.48
7532;BME280;3807;49.030;8.714;2024-03-17T09:29:59;99934.09;;;10.39;71.44
7532;BME280;3807;49.030;8.714;2024-03-17T09:32:25;99933.84;;;10.50;72.23
7532;BME280;3807;49.030;8.714;2024-03-17T09:34:50;99935.38;;;10.56;71.84
7532;BME280;3807;49.030;8.714;2024-03-17T09:37:15;99930.97;;;10.64;71.67
7532;BME280;3807;49.030;8.714;2024-03-17T09:39:41;99933.50;;;10.64;72.22
7532;BME280;3807;49.030;8.714;2024-03-17T09:42:17;99934.22;;;10.70;71.57
7532;BME280;3807;49.030;8.714;2024-03-17T09:44:43;99925.63;;;10.75;71.57
7532;BME280;3807;49.030;8.714;2024-03-17T09:47:16;99917.91;;;10.76;71.42
7532;BME280;3807;49.030;8.714;2024-03-17T09:49:43;99918.81;;;10.75;71.67
7532;BME280;3807;49.030;8.714;2024-03-17T09:52:23;99922.00;;;10.83;71.44
7532;BME280;3807;49.030;8.714;2024-03-17T09:54:55;99910.22;;;10.79;71.09
7532;BME280;3807;49.030;8.714;2024-03-17T09:57:23;99912.47;;;10.90;72.44
7532;BME280;3807;49.030;8.714;2024-03-17T09:59:53;99904.69;;;10.96;72.10
7532;BME280;3807;49.030;8.714;2024-03-17T10:02:22;99907.25;;;10.94;73.31
7532;BME280;3807;49.030;8.714;2024-03-17T10:04:48;99898.56;;;11.02;72.25
7532;BME280;3807;49.030;8.714;2024-03-17T10:07:13;99898.50;;;11.05;71.22
7532;BME280;3807;49.030;8.714;2024-03-17T10:09:42;99902.56;;;11.12;72.43
7532;BME280;3807;49.030;8.714;2024-03-17T10:12:29;99907.44;;;11.21;71.80
7532;BME280;3807;49.030;8.714;2024-03-17T10:15:01;99915.88;;;11.23;72.05
7532;BME280;3807;49.030;8.714;2024-03-17T10:17:33;99915.69;;;11.31;71.26
7532;BME280;3807;49.030;8.714;2024-03-17T10:20:14;99917.31;;;11.33;72.68
7532;BME280;3807;49.030;8.714;2024-03-17T10:25:27;99919.38;;;11.50;72.48
7532;BME280;3807;49.030;8.714;2024-03-17T10:27:53;99917.56;;;11.54;72.28
7532;BME280;3807;49.030;8.714;2024-03-17T10:30:19;99914.69;;;11.66;72.65
7532;BME280;3807;49.030;8.714;2024-03-17T10:32:51;99914.44;;;11.75;72.38
7532;BME280;3807;49.030;8.714;2024-03-17T10:35:28;99919.31;;;11.83;71.92
7532;BME280;3807;49.030;8.714;2024-03-17T10:38:01;99918.06;;;11.98;72.67
7532;BME280;3807;49.030;8.714;2024-03-17T10:40:29;99920.38;;;12.05;72.41
7532;BME280;3807;49.030;8.714;2024-03-17T10:42:56;99913.13;;;11.91;72.86
7532;BME280;3807;49.030;8.714;2024-03-17T10:45:22;99921.88;;;12.12;72.42
7532;BME280;3807;49.030;8.714;2024-03-17T10:47:49;99921.63;;;12.20;72.02
7532;BME280;3807;49.030;8.714;2024-03-17T10:50:22;99916.16;;;12.32;71.32
7532;BME280;3807;49.030;8.714;2024-03-17T10:52:52;99917.72;;;12.36;71.52
7532;BME280;3807;49.030;8.714;2024-03-17T10:55:25;99910.97;;;12.35;71.83
7532;BME280;3807;49.030;8.714;2024-03-17T10:57:52;99908.81;;;12.50;71.42
7532;BME280;3807;49.030;8.714;2024-03-17T11:00:20;99897.56;;;12.55;71.69
7532;BME280;3807;49.030;8.714;2024-03-17T11:02:51;99890.47;;;12.63;70.88
7532;BME280;3807;49.030;8.714;2024-03-17T11:05:22;99888.59;;;12.69;70.25
7532;BME280;3807;49.030;8.714;2024-03-17T11:07:52;99884.28;;;12.71;70.06
7532;BME280;3807;49.030;8.714;2024-03-17T11:10:31;99884.09;;;12.77;69.92
7532;BME280;3807;49.030;8.714;2024-03-17T11:12:58;99881.19;;;12.86;69.81
7532;BME280;3807;49.030;8.714;2024-03-17T11:20:36;99880.72;;;13.25;69.05
7532;BME280;3807;49.030;8.714;2024-03-17T11:23:02;99874.88;;;13.21;69.33
7532;BME280;3807;49.030;8.714;2024-03-17T11:28:05;99870.53;;;13.48;67.51
7532;BME280;3807;49.030;8.714;2024-03-17T11:30:43;99866.09;;;13.53;68.10
7532;BME280;3807;49.030;8.714;2024-03-17T11:38:55;99868.66;;;13.75;67.45
7532;BME280;3807;49.030;8.714;2024-03-17T11:41:41;99859.56;;;13.90;67.00
7532;BME280;3807;49.030;8.714;2024-03-17T11:47:06;99858.72;;;14.12;66.85
7532;BME280;3807;49.030;8.714;2024-03-17T11:49:39;99854.78;;;14.25;66.06
7532;BME280;3807;49.030;8.714;2024-03-17T11:52:09;99851.47;;;14.43;65.99
7532;BME280;3807;49.030;8.714;2024-03-17T11:54:38;99853.00;;;14.27;66.34
7532;BME280;3807;49.030;8.714;2024-03-17T11:57:09;99849.03;;;14.62;65.06
7532;BME280;3807;49.030;8.714;2024-03-17T11:59:35;99846.69;;;14.58;65.58
7532;BME280;3807;49.030;8.714;2024-03-17T12:02:02;99853.00;;;14.69;64.92
7532;BME280;3807;49.030;8.714;2024-03-17T12:04:28;99851.34;;;14.89;64.11
7532;BME280;3807;49.030;8.714;2024-03-17T12:06:58;99837.16;;;15.00;64.01
7532;BME280;3807;49.030;8.714;2024-03-17T12:09:26;99836.66;;;14.92;64.64
7532;BME280;3807;49.030;8.714;2024-03-17T12:12:06;99849.44;;;15.13;63.42
7532;BME280;3807;49.030;8.714;2024-03-17T12:14:33;99843.44;;;15.14;63.82
7532;BME280;3807;49.030;8.714;2024-03-17T12:17:08;99838.84;;;15.20;64.22
7532;BME280;3807;49.030;8.714;2024-03-17T12:19:35;99834.25;;;15.27;64.21
7532;BME280;3807;49.030;8.714;2024-03-17T12:22:02;99834.78;;;15.35;63.81
7532;BME280;3807;49.030;8.714;2024-03-17T12:24:29;99821.59;;;15.43;63.66
7532;BME280;3807;49.030;8.714;2024-03-17T12:26:55;99816.88;;;15.53;62.03
7532;BME280;3807;49.030;8.714;2024-03-17T12:29:39;99811.16;;;15.65;62.54
7532;BME280;3807;49.030;8.714;2024-03-17T12:34:35;99817.56;;;15.75;62.48
7532;BME280;3807;49.030;8.714;2024-03-17T12:37:01;99806.09;;;15.82;62.13
7532;BME280;3807;49.030;8.714;2024-03-17T12:39:27;99808.28;;;15.73;62.72
7532;BME280;3807;49.030;8.714;2024-03-17T12:44:48;99799.03;;;16.05;62.41
7532;BME280;3807;49.030;8.714;2024-03-17T12:47:34;99796.34;;;16.08;61.95
7532;BME280;3807;49.030;8.714;2024-03-17T12:50:01;99799.44;;;16.14;62.18
7532;BME280;3807;49.030;8.714;2024-03-17T12:52:33;99800.31;;;16.13;62.15
7532;BME280;3807;49.030;8.714;2024-03-17T12:54:59;99797.84;;;16.12;62.28
7532;BME280;3807;49.030;8.714;2024-03-17T12:57:45;99797.91;;;16.28;62.17
7532;BME280;3807;49.030;8.714;2024-03-17T13:00:29;99794.44;;;16.29;61.78
7532;BME280;3807;49.030;8.714;2024-03-17T13:02:59;99798.38;;;16.36;61.31
7532;BME280;3807;49.030;8.714;2024-03-17T13:05:24;99797.47;;;16.37;61.33
7532;BME280;3807;49.030;8.714;2024-03-17T13:07:50;99800.13;;;16.35;63.23
7532;BME280;3807;49.030;8.714;2024-03-17T13:10:18;99801.63;;;16.39;61.08
7532;BME280;3807;49.030;8.714;2024-03-17T13:12:47;99791.88;;;16.46;60.22
7532;BME280;3807;49.030;8.714;2024-03-17T13:15:14;99790.03;;;16.48;61.17
7532;BME280;3807;49.030;8.714;2024-03-17T13:17:41;99784.84;;;16.50;60.52
7532;BME280;3807;49.030;8.714;2024-03-17T13:20:08;99774.91;;;16.59;61.08
7532;BME280;3807;49.030;8.714;2024-03-17T13:22:38;99773.75;;;16.65;60.06
7532;BME280;3807;49.030;8.714;2024-03-17T13:25:05;99782.16;;;16.68;60.61
7532;BME280;3807;49.030;8.714;2024-03-17T13:27:31;99784.56;;;16.72;60.64
7532;BME280;3807;49.030;8.714;2024-03-17T13:29:56;99779.50;;;16.70;61.04
7532;BME280;3807;49.030;8.714;2024-03-17T13:32:22;99767.47;;;16.71;60.65
7532;BME280;3807;49.030;8.714;2024-03-17T13:34:47;99763.06;;;16.73;63.01
7532;BME280;3807;49.030;8.714;2024-03-17T13:37:12;99764.38;;;16.81;60.42
7532;BME280;3807;49.030;8.714;2024-03-17T13:39:38;99761.31;;;16.90;60.59
7532;BME280;3807;49.030;8.714;2024-03-17T13:42:03;99762.63;;;16.82;59.75
7532;BME280;3807;49.030;8.714;2024-03-17T13:44:29;99754.81;;;16.83;60.18
7532;BME280;3807;49.030;8.714;2024-03-17T13:46:56;99751.38;;;16.84;60.12
7532;BME280;3807;49.030;8.714;2024-03-17T13:49:22;99749.97;;;16.95;59.95